Time;durP1;ratioP1;P1;durP2;ratioP2;P2;SDS_P1;SDS_P2;PMS_P1;PMS_P2;Temp;Humidity;BMP_temperature;BMP_pressure;BME280_temperature;BME280_humidity;BME280_pressure;Samples;Min_cycle;Max_cycle;Signal;HPM_P1;HPM_P2
2023/08/17 00:02:13;;;;;;;18.33;10.77;;;;;;;18.34;92.93;101849.59;5112611;28;20088;-69
2023/08/17 00:04:39;;;;;;;19.23;11.20;;;;;;;18.34;92.86;101855.22;5111058;28;20040;-68
2023/08/17 00:07:05;;;;;;;16.63;11.38;;;;;;;18.30;93.04;101860.66;5112502;28;20092;-69
2023/08/17 00:09:31;;;;;;;16.58;10.68;;;;;;;18.27;92.82;101860.50;5112393;28;20027;-68
2023/08/17 00:11:57;;;;;;;16.35;11.50;;;;;;;18.27;92.46;101849.31;5112362;28;20102;-68
2023/08/17 00:14:22;;;;;;;17.40;11.77;;;;;;;18.33;92.64;101850.75;5112548;28;20051;-68
2023/08/17 00:16:50;;;;;;;15.63;11.18;;;;;;;18.21;92.48;101854.25;5112315;28;20780;-69
2023/08/17 00:19:15;;;;;;;17.75;11.50;;;;;;;18.19;92.42;101853.78;5112253;28;20024;-69
2023/08/17 00:21:40;;;;;;;18.52;11.20;;;;;;;18.18;91.85;101858.56;5112331;28;20054;-69
2023/08/17 00:24:06;;;;;;;15.55;10.60;;;;;;;18.11;92.20;101847.06;5112214;28;20099;-69
2023/08/17 00:26:31;;;;;;;16.23;10.88;;;;;;;18.13;92.44;101843.91;5112162;28;20115;-69
2023/08/17 00:28:56;;;;;;;17.55;11.00;;;;;;;18.11;92.07;101840.63;5112009;28;20027;-69
2023/08/17 00:31:22;;;;;;;16.88;11.25;;;;;;;18.07;92.47;101838.50;5110511;28;20100;-68
2023/08/17 00:33:47;;;;;;;16.33;11.40;;;;;;;18.04;92.82;101838.34;5112086;28;20016;-69
2023/08/17 00:36:12;;;;;;;16.73;11.20;;;;;;;18.05;93.11;101842.78;5112007;28;20055;-68
2023/08/17 00:38:38;;;;;;;16.00;10.75;;;;;;;18.00;93.47;101835.38;5111911;28;20088;-68
2023/08/17 00:41:03;;;;;;;16.70;11.50;;;;;;;17.96;93.62;101836.34;5111986;28;20067;-69
2023/08/17 00:43:28;;;;;;;18.88;12.00;;;;;;;17.94;94.06;101833.88;5111930;28;20113;-69
2023/08/17 00:45:54;;;;;;;17.90;11.68;;;;;;;17.87;94.64;101833.56;5112067;28;20524;-69
2023/08/17 00:48:19;;;;;;;17.52;11.93;;;;;;;17.85;95.12;101833.09;5111873;28;20070;-68
2023/08/17 00:50:48;;;;;;;19.10;12.05;;;;;;;17.71;95.67;101839.66;5111798;28;20031;-69
2023/08/17 00:53:16;;;;;;;18.65;11.70;;;;;;;17.69;96.56;101839.19;5110522;28;20098;-69
2023/08/17 00:55:41;;;;;;;18.20;11.05;;;;;;;17.70;96.64;101835.25;5111758;27;20028;-68
2023/08/17 00:58:06;;;;;;;16.55;11.02;;;;;;;17.68;97.11;101845.09;5112063;28;20347;-68
2023/08/17 01:00:32;;;;;;;16.52;11.20;;;;;;;17.67;97.68;101844.31;5111866;28;20055;-68
2023/08/17 01:02:57;;;;;;;18.55;12.30;;;;;;;17.65;97.66;101845.78;5111559;28;20051;-68
2023/08/17 01:05:23;;;;;;;19.08;12.38;;;;;;;17.67;97.72;101844.31;5111333;28;20032;-69
2023/08/17 01:07:49;;;;;;;19.17;12.70;;;;;;;17.64;98.18;101846.94;5111529;28;20054;-69
2023/08/17 01:10:16;;;;;;;19.52;13.05;;;;;;;17.59;98.63;101859.94;5111326;28;20060;-69
2023/08/17 01:12:48;;;;;;;18.90;11.82;;;;;;;17.59;98.92;101856.31;5111412;28;20126;-69
2023/08/17 01:15:28;;;;;;;19.42;12.02;;;;;;;17.57;99.16;101851.03;5111335;28;20028;-68
2023/08/17 01:18:31;;;;;;;19.38;12.00;;;;;;;17.59;99.29;101839.53;5111418;28;20024;-69
2023/08/17 01:20:56;;;;;;;17.80;11.05;;;;;;;17.52;99.83;101842.03;5109945;28;20028;-68
2023/08/17 01:23:22;;;;;;;19.13;11.93;;;;;;;17.51;100.00;101849.56;5111277;28;20031;-69
2023/08/17 01:25:48;;;;;;;20.08;11.25;;;;;;;17.46;100.00;101844.97;5111262;28;20479;-69
2023/08/17 01:28:13;;;;;;;18.40;11.32;;;;;;;17.50;100.00;101841.53;5109915;28;20337;-69
2023/08/17 01:31:05;;;;;;;19.52;11.43;;;;;;;17.48;100.00;101843.81;5111187;28;20063;-67
2023/08/17 01:33:56;;;;;;;19.52;11.40;;;;;;;17.42;100.00;101835.59;5111274;28;20056;-68
2023/08/17 01:36:21;;;;;;;19.13;11.65;;;;;;;17.40;100.00;101842.66;5111224;28;20024;-68
2023/08/17 01:38:50;;;;;;;18.52;11.68;;;;;;;17.42;100.00;101837.56;5111082;28;20030;-68
2023/08/17 01:41:16;;;;;;;17.42;11.57;;;;;;;17.45;100.00;101836.91;5111180;28;20529;-68
2023/08/17 01:43:45;;;;;;;18.00;11.70;;;;;;;17.45;100.00;101836.91;5111105;28;20023;-68
2023/08/17 01:46:14;;;;;;;17.83;11.57;;;;;;;17.41;100.00;101836.75;5111374;28;20015;-69
2023/08/17 01:48:39;;;;;;;17.40;11.70;;;;;;;17.40;100.00;101835.09;5111066;28;20102;-68
2023/08/17 01:51:04;;;;;;;18.65;11.90;;;;;;;17.39;100.00;101833.44;5111144;28;20626;-68
2023/08/17 01:53:30;;;;;;;18.27;11.48;;;;;;;17.40;100.00;101831.47;5111122;28;20023;-68
2023/08/17 01:55:55;;;;;;;18.83;11.90;;;;;;;17.35;100.00;101826.84;5111079;28;20490;-68
2023/08/17 01:58:20;;;;;;;17.40;11.88;;;;;;;17.36;100.00;101836.09;5110929;28;20112;-68
2023/08/17 02:00:45;;;;;;;19.55;12.07;;;;;;;17.31;100.00;101828.69;5110974;28;20016;-68
2023/08/17 02:03:11;;;;;;;18.70;11.70;;;;;;;17.25;100.00;101829.97;5111054;28;20486;-69
2023/08/17 02:05:36;;;;;;;17.75;11.52;;;;;;;17.23;100.00;101827.53;5109542;28;20028;-68
2023/08/17 02:08:02;;;;;;;19.33;11.95;;;;;;;17.18;100.00;101830.50;5110931;28;20027;-69
2023/08/17 02:10:27;;;;;;;18.48;11.45;;;;;;;17.19;99.98;101825.72;5111000;28;20027;-69
2023/08/17 02:12:52;;;;;;;18.63;11.23;;;;;;;17.13;100.00;101827.84;5110946;28;20038;-69
2023/08/17 02:15:18;;;;;;;20.63;11.48;;;;;;;17.15;100.00;101823.56;5110845;28;20024;-68
2023/08/17 02:17:43;;;;;;;19.80;11.40;;;;;;;17.10;100.00;101831.28;5110791;28;20032;-68
2023/08/17 02:20:09;;;;;;;17.05;11.05;;;;;;;17.08;100.00;101844.78;5110817;28;20028;-68
2023/08/17 02:22:34;;;;;;;18.75;11.48;;;;;;;17.01;100.00;101842.47;5113085;28;20114;-69
2023/08/17 02:25:00;;;;;;;17.40;11.50;;;;;;;17.00;100.00;101829.63;5114547;28;20024;-68
2023/08/17 02:27:25;;;;;;;18.42;11.30;;;;;;;16.97;100.00;101833.06;5114369;28;20046;-68
2023/08/17 02:29:51;;;;;;;17.08;11.20;;;;;;;16.94;100.00;101844.91;5114213;28;20038;-69
2023/08/17 02:32:17;;;;;;;18.17;11.30;;;;;;;16.86;100.00;101829.75;5114432;28;20441;-68
2023/08/17 02:34:42;;;;;;;18.90;11.52;;;;;;;16.84;100.00;101826.44;5114430;28;20028;-69
2023/08/17 02:37:07;;;;;;;18.55;11.48;;;;;;;16.86;100.00;101835.31;5114358;28;20028;-68
2023/08/17 02:39:33;;;;;;;17.92;11.50;;;;;;;16.86;99.91;101832.53;5114206;28;20028;-69
2023/08/17 02:41:58;;;;;;;17.65;11.25;;;;;;;16.75;99.72;101828.38;5114148;28;20027;-68
2023/08/17 02:44:23;;;;;;;17.50;11.30;;;;;;;16.83;100.00;101822.84;5114128;28;20119;-68
2023/08/17 02:46:49;;;;;;;17.13;11.25;;;;;;;16.83;98.97;101822.84;5114101;28;20052;-69
2023/08/17 02:49:14;;;;;;;17.45;11.40;;;;;;;16.80;98.80;101825.47;5114090;28;20376;-68
2023/08/17 02:51:39;;;;;;;17.88;11.25;;;;;;;16.75;98.99;101828.38;5113973;28;20059;-69
2023/08/17 02:54:04;;;;;;;18.05;11.20;;;;;;;16.73;99.37;101817.53;5113967;28;20059;-68
2023/08/17 02:56:30;;;;;;;16.08;10.63;;;;;;;16.76;99.65;101821.66;5113903;28;20104;-68
2023/08/17 02:58:55;;;;;;;17.65;11.15;;;;;;;16.73;99.37;101825.94;5113848;28;20566;-68
2023/08/17 03:01:20;;;;;;;19.13;11.30;;;;;;;16.70;99.62;101832.16;5113765;28;20471;-69
2023/08/17 03:03:46;;;;;;;16.88;11.13;;;;;;;16.65;99.67;101821.94;5113743;28;20051;-69
2023/08/17 03:06:11;;;;;;;16.55;10.60;;;;;;;16.64;99.88;101828.69;5113710;28;20023;-69
2023/08/17 03:08:36;;;;;;;17.48;11.50;;;;;;;16.61;99.59;101820.13;5113754;28;20036;-68
2023/08/17 03:11:02;;;;;;;17.63;11.43;;;;;;;16.63;99.63;101826.22;5113835;27;20024;-68
2023/08/17 03:13:27;;;;;;;19.27;12.30;;;;;;;16.64;99.37;101825.88;5113580;28;20118;-69
2023/08/17 03:15:54;;;;;;;17.50;11.38;;;;;;;16.60;99.55;101821.28;5113637;27;20046;-69
2023/08/17 03:18:19;;;;;;;16.27;11.05;;;;;;;16.63;99.79;101823.44;5113373;28;20028;-68
2023/08/17 03:20:46;;;;;;;17.08;11.55;;;;;;;16.63;99.48;101827.03;5113484;28;20024;-70
2023/08/17 03:23:11;;;;;;;17.77;11.00;;;;;;;16.62;99.61;101817.03;5113440;28;20032;-68
2023/08/17 03:25:37;;;;;;;17.65;11.30;;;;;;;16.63;99.55;101810.28;5113269;28;20441;-69
2023/08/17 03:28:03;;;;;;;17.17;11.32;;;;;;;16.67;99.79;101807.69;5113285;28;20028;-68
2023/08/17 03:30:28;;;;;;;16.98;11.88;;;;;;;16.71;99.63;101819.84;5113141;28;20043;-68
2023/08/17 03:32:53;;;;;;;18.67;11.23;;;;;;;16.76;99.31;101816.91;5112317;28;20542;-68
2023/08/17 03:35:19;;;;;;;15.98;10.65;;;;;;;16.70;99.34;101815.38;5112874;28;20034;-68
2023/08/17 03:37:45;;;;;;;16.75;11.05;;;;;;;16.67;99.30;101816.06;5111714;28;20624;-69
2023/08/17 03:40:10;;;;;;;17.55;10.45;;;;;;;16.70;99.51;101812.59;5113075;28;20379;-68
2023/08/17 03:42:36;;;;;;;16.90;10.80;;;;;;;16.61;100.00;101809.81;5112881;28;20026;-69
2023/08/17 03:45:01;;;;;;;16.95;10.90;;;;;;;16.60;99.84;101807.31;5111465;28;20035;-68
2023/08/17 03:47:27;;;;;;;16.98;11.07;;;;;;;16.51;100.00;101815.69;5112987;28;20023;-69
2023/08/17 03:49:52;;;;;;;18.60;10.90;;;;;;;16.44;100.00;101810.56;5112976;28;20019;-69
2023/08/17 03:52:17;;;;;;;18.30;11.50;;;;;;;16.45;100.00;101805.78;5112913;28;20413;-68
2023/08/17 03:54:43;;;;;;;18.90;11.50;;;;;;;16.41;100.00;101804.78;5113547;28;20032;-68
2023/08/17 03:57:08;;;;;;;17.15;11.73;;;;;;;16.38;100.00;101801.50;5112813;28;20030;-68
2023/08/17 03:59:34;;;;;;;18.05;11.52;;;;;;;16.38;100.00;101803.47;5112548;28;20476;-68
2023/08/17 04:01:59;;;;;;;17.67;11.43;;;;;;;16.40;100.00;101806.75;5112657;28;20453;-68
2023/08/17 04:04:24;;;;;;;17.60;11.38;;;;;;;16.41;100.00;101807.59;5112709;28;20100;-68
2023/08/17 04:06:50;;;;;;;16.50;11.30;;;;;;;16.37;100.00;101810.19;5112605;28;20024;-68
2023/08/17 04:09:15;;;;;;;18.23;11.85;;;;;;;16.37;100.00;101815.78;5112479;28;20440;-69
2023/08/17 04:11:40;;;;;;;17.92;12.27;;;;;;;16.34;100.00;101819.22;5112359;28;20437;-68
2023/08/17 04:14:06;;;;;;;19.42;12.40;;;;;;;16.24;100.00;101820.34;5112346;27;20203;-68
2023/08/17 04:16:36;;;;;;;19.67;12.60;;;;;;;16.25;100.00;101824.75;5113071;28;20219;-68
2023/08/17 04:19:02;;;;;;;19.17;12.60;;;;;;;16.21;100.00;101832.94;5113070;28;20466;-69
2023/08/17 04:21:27;;;;;;;19.13;13.13;;;;;;;16.19;100.00;101840.84;5111633;28;20035;-68
2023/08/17 04:23:53;;;;;;;18.77;12.95;;;;;;;16.10;100.00;101836.34;5113006;27;20027;-71
2023/08/17 04:26:18;;;;;;;19.90;13.13;;;;;;;16.06;100.00;101838.94;5113019;28;20023;-68
2023/08/17 04:28:44;;;;;;;20.30;13.63;;;;;;;15.98;100.00;101839.72;5112571;28;20054;-69
2023/08/17 04:31:09;;;;;;;18.98;13.40;;;;;;;15.98;100.00;101839.72;5111923;28;20448;-69
2023/08/17 04:33:34;;;;;;;20.65;14.00;;;;;;;15.88;100.00;101843.59;5111904;28;20033;-70
2023/08/17 04:36:00;;;;;;;18.50;13.02;;;;;;;15.86;100.00;101845.91;5111950;28;20026;-68
2023/08/17 04:38:26;;;;;;;20.25;13.38;;;;;;;15.78;100.00;101838.22;5112720;28;20416;-68
2023/08/17 04:40:52;;;;;;;19.73;13.38;;;;;;;15.82;100.00;101842.03;5112060;28;20038;-68
2023/08/17 04:43:17;;;;;;;19.02;12.73;;;;;;;15.86;100.00;101845.91;5111830;28;20036;-67
2023/08/17 04:45:44;;;;;;;19.52;12.50;;;;;;;15.90;100.00;101844.09;5111406;28;20130;-67
2023/08/17 04:48:09;;;;;;;20.02;12.15;;;;;;;15.95;100.00;101851.50;5111809;28;20042;-67
2023/08/17 04:50:34;;;;;;;17.77;11.70;;;;;;;15.95;100.00;101843.16;5111681;28;20111;-67
2023/08/17 04:53:00;;;;;;;20.70;12.10;;;;;;;15.92;100.00;101850.19;5111616;28;20107;-68
2023/08/17 04:55:25;;;;;;;20.13;12.30;;;;;;;15.98;100.00;101845.31;5111605;28;20054;-67
2023/08/17 04:57:50;;;;;;;19.77;12.38;;;;;;;15.94;100.00;101844.28;5111503;28;20391;-68
2023/08/17 05:00:16;;;;;;;18.48;12.23;;;;;;;15.92;100.00;101841.00;5111441;28;20028;-67
2023/08/17 05:02:41;;;;;;;18.88;11.70;;;;;;;15.95;100.00;101840.34;5111477;28;20103;-68
2023/08/17 05:05:09;;;;;;;19.58;11.98;;;;;;;15.90;100.00;101842.16;5110144;28;20169;-69
2023/08/17 05:07:34;;;;;;;19.85;11.95;;;;;;;15.90;100.00;101838.50;5111684;28;20452;-68
2023/08/17 05:10:00;;;;;;;18.98;12.00;;;;;;;15.93;100.00;101837.88;5111510;28;20152;-68
2023/08/17 05:12:26;;;;;;;18.58;12.30;;;;;;;16.03;100.00;101840.41;5110144;28;20096;-68
2023/08/17 05:14:51;;;;;;;19.92;12.60;;;;;;;16.00;100.00;101832.66;5111720;28;20028;-68
2023/08/17 05:17:17;;;;;;;19.73;12.13;;;;;;;16.06;100.00;101831.38;5111656;28;20027;-68
2023/08/17 05:19:42;;;;;;;17.95;11.77;;;;;;;16.17;100.00;101829.16;5111393;28;20027;-68
2023/08/17 05:22:13;;;;;;;20.25;12.38;;;;;;;16.18;100.00;101830.81;5111500;28;20020;-68
2023/08/17 05:24:38;;;;;;;17.40;12.15;;;;;;;16.19;100.00;101829.69;5111194;28;20494;-68
2023/08/17 05:27:05;;;;;;;18.10;12.23;;;;;;;16.22;100.00;101831.00;5111483;28;20032;-67
2023/08/17 05:29:32;;;;;;;18.08;11.70;;;;;;;16.24;100.00;101825.06;5111458;28;20034;-68
2023/08/17 05:31:57;;;;;;;20.42;12.18;;;;;;;16.28;100.00;101826.91;5111350;28;20048;-68
2023/08/17 05:34:23;;;;;;;18.40;11.88;;;;;;;16.31;100.00;101834.66;5111156;28;20023;-69
2023/08/17 05:36:48;;;;;;;18.05;11.68;;;;;;;16.35;100.00;101832.84;5111137;28;20027;-67
2023/08/17 05:39:13;;;;;;;18.15;12.10;;;;;;;16.42;100.00;101824.00;5111097;28;20019;-68
2023/08/17 05:41:39;;;;;;;20.10;11.90;;;;;;;16.42;100.00;101821.22;5111121;28;20024;-68
2023/08/17 05:44:06;;;;;;;18.77;11.98;;;;;;;16.45;100.00;101834.53;5111162;28;20039;-68
2023/08/17 05:46:32;;;;;;;17.27;11.40;;;;;;;16.49;100.00;101834.72;5112002;28;20032;-68
2023/08/17 05:48:59;;;;;;;18.67;11.63;;;;;;;16.55;100.00;101841.00;5110524;28;20219;-68
2023/08/17 05:51:24;;;;;;;17.02;11.50;;;;;;;16.56;100.00;101835.06;5111591;28;20032;-68
2023/08/17 05:53:50;;;;;;;18.58;11.32;;;;;;;16.65;100.00;101837.91;5110989;28;20038;-68
2023/08/17 05:56:15;;;;;;;17.73;11.65;;;;;;;16.68;100.00;101835.28;5111109;28;20028;-67
2023/08/17 05:58:40;;;;;;;20.13;11.77;;;;;;;16.49;100.00;101841.13;5115064;28;20524;-69
2023/08/17 06:01:10;;;;;;;17.58;11.52;;;;;;;16.47;100.00;101845.38;5115070;28;20489;-68
2023/08/17 06:03:36;;;;;;;21.02;12.20;;;;;;;16.43;100.00;101845.22;5114950;27;20029;-68
2023/08/17 06:06:03;;;;;;;19.25;11.98;;;;;;;16.43;100.00;101849.97;5114958;28;20023;-68
2023/08/17 06:08:29;;;;;;;19.10;11.95;;;;;;;16.52;100.00;101853.63;5114766;28;20383;-68
2023/08/17 06:10:54;;;;;;;18.67;12.25;;;;;;;16.63;100.00;101854.16;5113298;28;20130;-67
2023/08/17 06:13:20;;;;;;;18.40;12.30;;;;;;;16.65;100.00;101861.06;5114637;28;20546;-68
2023/08/17 06:15:45;;;;;;;20.35;12.70;;;;;;;16.77;100.00;101863.22;5114584;28;20019;-68
2023/08/17 06:18:10;;;;;;;18.73;12.35;;;;;;;16.82;100.00;101868.69;5114578;28;20031;-67
2023/08/17 06:20:36;;;;;;;20.08;12.57;;;;;;;16.81;100.00;101864.25;5114539;28;20066;-68
2023/08/17 06:23:01;;;;;;;19.58;12.90;;;;;;;16.87;100.00;101864.91;5114364;28;20107;-68
2023/08/17 06:25:27;;;;;;;19.83;12.63;;;;;;;16.96;100.00;101868.59;5114490;28;20539;-68
2023/08/17 06:27:52;;;;;;;20.17;12.80;;;;;;;17.08;100.00;101867.16;5114459;28;20407;-67
2023/08/17 06:30:18;;;;;;;20.55;13.25;;;;;;;17.09;100.00;101857.63;5114473;28;20047;-68
2023/08/17 06:32:43;;;;;;;19.83;13.00;;;;;;;17.15;100.00;101851.50;5114387;28;20479;-67
2023/08/17 06:35:09;;;;;;;19.55;12.80;;;;;;;17.24;100.00;101848.75;5114252;28;20479;-68
2023/08/17 06:37:34;;;;;;;19.73;13.07;;;;;;;17.29;100.00;101847.75;5114309;28;20467;-69
2023/08/17 06:40:00;;;;;;;20.80;13.00;;;;;;;17.27;100.00;101850.06;5114179;28;20027;-68
2023/08/17 06:42:25;;;;;;;21.15;13.10;;;;;;;17.24;100.00;101845.94;5114178;28;20456;-67
2023/08/17 06:44:50;;;;;;;19.23;12.90;;;;;;;17.48;100.00;101849.41;5114013;28;20164;-67
2023/08/17 06:47:16;;;;;;;19.33;12.55;;;;;;;17.65;100.00;101852.19;5114194;28;20085;-68
2023/08/17 06:49:41;;;;;;;20.60;12.50;;;;;;;17.74;99.46;101857.81;5112700;28;20027;-68
2023/08/17 06:52:06;;;;;;;19.05;12.27;;;;;;;17.86;99.56;101857.94;5114092;28;20036;-68
2023/08/17 06:54:32;;;;;;;19.95;12.70;;;;;;;17.96;98.04;101851.22;5114029;28;20032;-68
2023/08/17 06:56:58;;;;;;;20.08;12.10;;;;;;;18.15;97.21;101848.03;5114006;28;20031;-68
2023/08/17 06:59:23;;;;;;;21.02;12.32;;;;;;;18.14;96.74;101854.78;5112419;28;20027;-68
2023/08/17 07:01:48;;;;;;;21.10;12.25;;;;;;;18.07;96.41;101860.91;5113937;28;20031;-68
2023/08/17 07:04:14;;;;;;;19.05;12.35;;;;;;;18.07;95.64;101860.06;5113987;28;20033;-68
2023/08/17 07:06:40;;;;;;;18.75;12.13;;;;;;;18.05;95.57;101866.00;5113676;28;20033;-69
2023/08/17 07:09:06;;;;;;;18.23;12.65;;;;;;;18.09;95.41;101868.97;5112012;28;20386;-69
2023/08/17 07:11:31;;;;;;;18.40;11.90;;;;;;;18.24;95.55;101862.81;5113647;28;20027;-67
2023/08/17 07:13:57;;;;;;;18.40;11.88;;;;;;;18.40;94.78;101863.09;5113521;28;20015;-68
2023/08/17 07:16:22;;;;;;;21.23;12.00;;;;;;;18.49;94.04;101867.84;5113918;28;20031;-69
2023/08/17 07:18:47;;;;;;;18.80;12.25;;;;;;;18.53;93.89;101861.22;5114432;28;20024;-68
2023/08/17 07:21:13;;;;;;;18.30;12.20;;;;;;;18.55;93.93;101869.31;5113475;28;20125;-69
2023/08/17 07:23:38;;;;;;;19.65;12.00;;;;;;;18.51;93.74;101862.72;5113642;28;20538;-68
2023/08/17 07:26:03;;;;;;;20.92;11.88;;;;;;;18.37;92.91;101874.16;5113509;28;20072;-68
2023/08/17 07:28:29;;;;;;;18.25;11.98;;;;;;;18.31;93.25;101869.91;5113544;28;20042;-68
2023/08/17 07:30:54;;;;;;;18.30;12.48;;;;;;;18.20;93.43;101859.06;5113822;28;20073;-68
2023/08/17 07:33:19;;;;;;;20.20;11.98;;;;;;;18.15;94.14;101858.41;5113265;28;20023;-68
2023/08/17 07:35:45;;;;;;;19.83;12.13;;;;;;;18.19;94.41;101859.38;5111683;28;20031;-68
2023/08/17 07:38:10;;;;;;;20.83;12.82;;;;;;;18.26;94.19;101861.66;5113116;28;20102;-68
2023/08/17 07:40:36;;;;;;;17.70;12.05;;;;;;;18.10;93.61;101870.63;5112975;28;20526;-68
2023/08/17 07:43:01;;;;;;;20.42;12.27;;;;;;;18.00;94.73;101868.97;5112870;28;20063;-68
2023/08/17 07:45:27;;;;;;;19.35;12.23;;;;;;;17.99;95.61;101872.09;5113003;28;20147;-69
2023/08/17 07:47:52;;;;;;;18.50;12.02;;;;;;;17.96;95.58;101868.00;5113018;28;20035;-68
2023/08/17 07:50:17;;;;;;;19.85;11.90;;;;;;;17.97;95.82;101858.47;5112991;28;20023;-68
2023/08/17 07:52:43;;;;;;;22.00;12.05;;;;;;;17.99;96.24;101860.91;5112790;28;20023;-68
2023/08/17 07:55:08;;;;;;;17.73;11.93;;;;;;;18.04;96.22;101864.38;5112834;28;20023;-67
2023/08/17 07:57:33;;;;;;;19.02;12.38;;;;;;;18.11;96.02;101863.88;5111212;28;20142;-67
2023/08/17 07:59:59;;;;;;;19.75;11.93;;;;;;;18.17;95.50;101862.50;5112574;28;20543;-69
2023/08/17 08:02:24;;;;;;;18.58;12.10;;;;;;;18.19;95.26;101871.41;5112728;28;20035;-68
2023/08/17 08:04:49;;;;;;;17.95;12.18;;;;;;;18.22;95.74;101867.13;5112635;28;20034;-67
2023/08/17 08:07:15;;;;;;;17.40;12.23;;;;;;;18.41;95.68;101861.13;5112548;28;20039;-67
2023/08/17 08:09:40;;;;;;;18.80;12.10;;;;;;;18.60;93.53;101866.31;5112288;28;20036;-68
2023/08/17 08:12:07;;;;;;;18.90;11.68;;;;;;;18.70;92.88;101868.75;5112439;28;20035;-68
2023/08/17 08:14:33;;;;;;;19.25;11.73;;;;;;;18.62;92.97;101869.63;5112450;28;20027;-69
2023/08/17 08:16:58;;;;;;;20.63;12.55;;;;;;;18.58;93.18;101867.81;5112386;28;20061;-67
2023/08/17 08:19:24;;;;;;;20.08;12.07;;;;;;;18.58;92.89;101882.63;5111561;28;20476;-68
2023/08/17 08:21:49;;;;;;;21.08;11.75;;;;;;;18.63;92.72;101874.06;5112248;28;20031;-68
2023/08/17 08:24:14;;;;;;;18.98;11.20;;;;;;;18.63;93.08;101864.81;5112182;28;20025;-68
2023/08/17 08:26:40;;;;;;;19.92;12.13;;;;;;;18.57;92.85;101871.78;5112196;28;20119;-68
2023/08/17 08:29:05;;;;;;;18.75;12.10;;;;;;;18.42;93.58;101873.97;5112089;28;20387;-68
2023/08/17 08:31:30;;;;;;;19.50;11.95;;;;;;;18.46;93.60;101871.34;5111922;28;20071;-68
2023/08/17 08:33:55;;;;;;;20.23;11.93;;;;;;;18.47;93.75;101871.00;5111977;28;20051;-68
2023/08/17 08:36:21;;;;;;;22.30;12.32;;;;;;;18.48;93.17;101875.44;5111983;28;20068;-67
2023/08/17 08:38:46;;;;;;;21.08;12.80;;;;;;;18.53;93.12;101882.84;5111865;28;20380;-68
2023/08/17 08:41:11;;;;;;;19.33;12.45;;;;;;;18.63;93.60;101879.66;5111861;28;20031;-68
2023/08/17 08:43:38;;;;;;;21.33;11.90;;;;;;;18.57;93.18;101886.59;5111828;28;20068;-69
2023/08/17 08:46:04;;;;;;;18.10;11.80;;;;;;;18.57;93.63;101874.59;5111849;28;20087;-68
2023/08/17 08:48:31;;;;;;;22.58;12.70;;;;;;;18.49;92.96;101879.88;5111754;28;20050;-68
2023/08/17 08:51:04;;;;;;;20.08;12.38;;;;;;;18.46;93.42;101876.94;5111646;28;20059;-68
2023/08/17 08:53:38;;;;;;;18.92;12.35;;;;;;;18.43;93.26;101888.81;5111820;28;20376;-67
2023/08/17 08:56:04;;;;;;;21.88;12.90;;;;;;;18.35;94.06;101879.25;5111983;28;20031;-68
2023/08/17 08:58:32;;;;;;;19.42;12.38;;;;;;;18.13;95.06;101875.56;5112244;28;20039;-67
2023/08/17 09:00:58;;;;;;;19.45;12.82;;;;;;;18.04;96.12;101874.75;5110321;28;20035;-68
2023/08/17 09:03:25;;;;;;;19.67;12.65;;;;;;;18.06;96.73;101873.25;5111678;28;20387;-68
2023/08/17 09:05:51;;;;;;;19.65;12.32;;;;;;;18.17;96.84;101868.13;5111582;28;20035;-68
2023/08/17 09:08:21;;;;;;;20.48;12.77;;;;;;;18.19;96.48;101870.56;5111662;28;20050;-68
2023/08/17 09:10:47;;;;;;;20.48;12.82;;;;;;;18.27;96.06;101866.94;5110056;28;20157;-68
2023/08/17 09:13:12;;;;;;;20.77;12.90;;;;;;;18.32;95.88;101863.16;5110017;28;20103;-67
2023/08/17 09:15:38;;;;;;;19.15;12.77;;;;;;;18.35;95.02;101857.69;5111405;28;20027;-68
2023/08/17 09:18:05;;;;;;;21.92;13.00;;;;;;;18.23;95.98;101855.56;5111178;28;20044;-69
2023/08/17 09:20:36;;;;;;;21.27;12.93;;;;;;;18.17;96.66;101861.72;5111479;28;20472;-68
2023/08/17 09:23:04;;;;;;;20.88;12.80;;;;;;;18.16;97.10;101855.25;5109739;28;20107;-67
2023/08/17 09:25:31;;;;;;;19.67;13.13;;;;;;;18.12;97.18;101854.31;5111595;28;20023;-69
2023/08/17 09:27:57;;;;;;;21.50;13.38;;;;;;;18.05;97.36;101859.56;5111333;28;20088;-68
2023/08/17 09:30:22;;;;;;;21.05;13.75;;;;;;;18.01;97.74;101859.41;5111479;28;20047;-69
2023/08/17 09:32:49;;;;;;;23.10;13.75;;;;;;;18.17;97.35;101854.13;5115547;27;20019;-69
2023/08/17 09:35:14;;;;;;;21.50;13.75;;;;;;;18.25;96.60;101852.44;5115629;28;20019;-68
2023/08/17 09:37:40;;;;;;;21.42;13.45;;;;;;;18.36;96.80;101850.09;5115531;28;20101;-68
2023/08/17 09:40:06;;;;;;;21.27;13.38;;;;;;;18.49;95.74;101846.28;5115353;28;20035;-68
2023/08/17 09:42:35;;;;;;;20.88;13.85;;;;;;;18.64;95.26;101849.66;5115403;28;20050;-68
2023/08/17 09:45:01;;;;;;;20.90;13.77;;;;;;;18.61;94.93;101858.75;5115317;28;20036;-68
2023/08/17 09:47:26;;;;;;;19.70;13.30;;;;;;;18.67;95.50;101846.19;5115289;28;20063;-67
2023/08/17 09:49:53;;;;;;;20.27;13.60;;;;;;;18.78;95.43;101852.22;5115212;28;20066;-68
2023/08/17 09:52:19;;;;;;;19.88;13.05;;;;;;;18.91;94.91;101845.56;5115240;28;20051;-68
2023/08/17 09:54:47;;;;;;;21.60;14.25;;;;;;;19.11;93.60;101843.97;5115128;28;20069;-67
2023/08/17 09:57:12;;;;;;;20.83;13.80;;;;;;;19.05;93.47;101836.09;5115044;28;20039;-68
2023/08/17 09:59:37;;;;;;;22.67;13.48;;;;;;;19.04;93.44;101849.28;5114868;28;20038;-68
2023/08/17 10:02:07;;;;;;;22.67;13.98;;;;;;;18.72;94.06;101843.19;5114946;28;20507;-68
2023/08/17 10:04:35;;;;;;;21.27;13.52;;;;;;;18.58;95.84;101839.78;5114826;28;20046;-68
2023/08/17 10:07:03;;;;;;;21.23;14.02;;;;;;;18.46;96.64;101841.31;5114882;28;20070;-68
2023/08/17 10:09:35;;;;;;;20.65;13.88;;;;;;;18.46;96.78;101832.13;5114806;28;20218;-68
2023/08/17 10:12:06;;;;;;;21.30;14.27;;;;;;;18.57;97.07;101838.97;5114786;28;20027;-68
2023/08/17 10:14:39;;;;;;;21.45;15.27;;;;;;;18.51;97.20;101829.94;5114773;28;20023;-68
2023/08/17 10:17:13;;;;;;;22.60;14.80;;;;;;;18.46;97.82;101827.31;5114871;28;20039;-68
2023/08/17 10:20:00;;;;;;;22.85;14.95;;;;;;;18.48;98.86;101824.16;5114728;28;20297;-67
2023/08/17 10:22:25;;;;;;;22.38;14.70;;;;;;;18.46;99.03;101827.31;5114593;28;20015;-67
2023/08/17 10:24:51;;;;;;;21.50;14.50;;;;;;;18.47;98.72;101825.31;5114591;28;20047;-67
2023/08/17 10:27:18;;;;;;;21.33;14.38;;;;;;;18.60;98.88;101827.09;5114825;28;20031;-68
2023/08/17 10:29:44;;;;;;;21.85;14.82;;;;;;;18.81;97.94;101821.53;5114322;28;20179;-68
2023/08/17 10:32:12;;;;;;;22.38;14.20;;;;;;;19.09;96.85;101818.22;5114681;28;20028;-67
2023/08/17 10:34:38;;;;;;;21.30;14.20;;;;;;;19.17;96.07;101811.75;5114370;28;20106;-67
2023/08/17 10:37:04;;;;;;;23.25;14.20;;;;;;;19.29;95.74;101818.56;5114275;28;20100;-69
2023/08/17 10:39:30;;;;;;;22.45;14.32;;;;;;;19.45;95.05;101819.63;5114217;28;20483;-67
2023/08/17 10:41:57;;;;;;;21.83;14.80;;;;;;;19.28;94.00;101825.34;5113842;28;20032;-69
2023/08/17 10:44:44;;;;;;;23.05;15.02;;;;;;;19.09;95.14;101823.03;5113811;28;20019;-67
2023/08/17 10:47:31;;;;;;;22.35;15.00;;;;;;;18.95;96.48;101806.47;5114194;28;20035;-69
2023/08/17 10:49:59;;;;;;;22.95;15.27;;;;;;;19.09;96.11;101818.22;5114352;28;20023;-67
2023/08/17 10:52:30;;;;;;;20.85;14.65;;;;;;;19.24;95.27;101818.81;5114153;28;20028;-67
2023/08/17 10:54:56;;;;;;;24.30;14.70;;;;;;;19.34;93.86;101835.22;5114216;28;20615;-69
2023/08/17 10:57:25;;;;;;;21.60;14.75;;;;;;;19.22;94.35;101826.72;5112673;28;20107;-68
2023/08/17 11:00:26;;;;;;;22.80;15.50;;;;;;;19.27;94.49;101829.34;5113865;28;20092;-69
2023/08/17 11:02:58;;;;;;;24.42;14.48;;;;;;;19.24;94.93;101825.22;5070659;28;20122;-68
2023/08/17 11:05:51;;;;;;;24.63;15.60;;;;;;;19.28;95.19;101829.00;5113891;28;20027;-68